createdAt,value
2022-08-12T00:02:43.560Z,2.33
2022-08-12T00:05:28.630Z,2.30
2022-08-12T00:08:15.720Z,2.10
2022-08-12T00:11:12.303Z,2.30
2022-08-12T00:13:57.715Z,2.27
2022-08-12T00:16:48.591Z,2.50
2022-08-12T00:19:34.112Z,2.60
2022-08-12T00:22:19.158Z,2.30
2022-08-12T00:25:05.192Z,2.47
2022-08-12T00:27:50.254Z,2.37
2022-08-12T00:30:35.361Z,2.40
2022-08-12T00:33:22.113Z,2.53
2022-08-12T00:36:35.278Z,2.60
2022-08-12T00:39:16.467Z,2.77
2022-08-12T00:42:02.028Z,2.53
2022-08-12T00:44:28.658Z,2.30
2022-08-12T00:46:57.599Z,2.50
2022-08-12T00:49:24.636Z,2.30
2022-08-12T00:52:08.818Z,2.50
2022-08-12T00:54:44.206Z,2.80
2022-08-12T00:57:14.930Z,2.37
2022-08-12T00:59:52.828Z,2.33
2022-08-12T01:02:23.861Z,2.57
2022-08-12T01:05:21.349Z,2.50
2022-08-12T01:08:07.008Z,2.63
2022-08-12T01:10:54.004Z,2.80
2022-08-12T01:13:21.329Z,3.10
2022-08-12T01:15:50.469Z,2.90
2022-08-12T01:18:18.974Z,2.47
2022-08-12T01:21:17.285Z,2.73
2022-08-12T01:24:29.498Z,2.90
2022-08-12T01:26:51.080Z,2.93
2022-08-12T01:29:20.814Z,2.63
2022-08-12T01:31:48.112Z,2.77
2022-08-12T01:34:36.517Z,3.00
2022-08-12T01:37:03.370Z,2.30
2022-08-12T01:39:32.352Z,2.40
2022-08-12T01:42:02.606Z,2.57
2022-08-12T01:44:29.353Z,2.60
2022-08-12T01:47:32.554Z,2.50
2022-08-12T01:50:26.264Z,2.60
2022-08-12T01:53:11.271Z,2.60
2022-08-12T01:55:42.548Z,2.50
2022-08-12T01:58:30.080Z,2.53
2022-08-12T02:01:03.763Z,2.73
2022-08-12T02:04:12.635Z,2.60
2022-08-12T02:07:13.234Z,2.83
2022-08-12T02:10:05.792Z,3.17
2022-08-12T02:12:54.473Z,2.97
2022-08-12T02:15:42.507Z,2.47
2022-08-12T02:18:46.157Z,3.00
2022-08-12T02:21:32.554Z,2.90
2022-08-12T02:23:59.489Z,2.33
2022-08-12T02:26:26.690Z,2.27
2022-08-12T02:28:53.317Z,2.67
2022-08-12T02:31:19.990Z,2.80
2022-08-12T02:33:47.555Z,2.70
2022-08-12T02:36:16.289Z,2.90
2022-08-12T02:38:43.661Z,2.60
2022-08-12T02:41:11.432Z,2.90
2022-08-12T02:43:54.834Z,2.50
2022-08-12T02:46:27.525Z,2.90
2022-08-12T02:49:00.819Z,2.50
2022-08-12T02:51:33.257Z,2.57
2022-08-12T02:54:06.571Z,2.60
2022-08-12T02:56:40.399Z,2.70
2022-08-12T02:59:12.291Z,2.83
2022-08-12T03:01:48.546Z,2.47
2022-08-12T03:04:24.377Z,3.00
2022-08-12T03:07:18.662Z,2.67
2022-08-12T03:10:03.879Z,2.50
2022-08-12T03:12:44.802Z,2.80
2022-08-12T03:15:18.098Z,2.50
2022-08-12T03:18:27.668Z,2.60
2022-08-12T03:20:48.730Z,2.60
2022-08-12T03:23:23.153Z,2.63
2022-08-12T03:25:58.723Z,2.30
2022-08-12T03:28:44.022Z,2.50
2022-08-12T03:31:10.810Z,2.43
2022-08-12T03:33:39.488Z,2.30
2022-08-12T03:36:07.532Z,2.57
2022-08-12T03:38:37.250Z,2.63
2022-08-12T03:41:35.230Z,2.43
2022-08-12T03:44:28.374Z,2.40
2022-08-12T03:47:41.997Z,2.47
2022-08-12T03:50:27.011Z,2.43
2022-08-12T03:53:12.174Z,2.50
2022-08-12T03:55:57.118Z,2.47
2022-08-12T03:58:42.268Z,2.43
2022-08-12T04:01:09.009Z,2.30
2022-08-12T04:03:54.661Z,2.30
2022-08-12T04:06:35.158Z,2.30
2022-08-12T04:09:03.340Z,2.70
2022-08-12T04:11:48.365Z,2.20
2022-08-12T04:14:22.294Z,2.30
2022-08-12T04:16:49.422Z,2.47
2022-08-12T04:19:16.394Z,2.50
2022-08-12T04:22:02.224Z,2.30
2022-08-12T04:24:34.918Z,2.93
2022-08-12T04:27:02.372Z,2.40
2022-08-12T04:30:16.726Z,2.60
2022-08-12T04:32:15.787Z,2.70
2022-08-12T04:34:44.410Z,2.60
2022-08-12T04:37:12.532Z,2.40
2022-08-12T04:39:39.514Z,2.60
2022-08-12T04:42:06.529Z,2.77
2022-08-12T04:44:33.141Z,2.40
2022-08-12T04:47:00.158Z,2.43
2022-08-12T04:49:27.734Z,2.47
2022-08-12T04:51:58.825Z,2.83
2022-08-12T04:54:26.968Z,2.73
2022-08-12T04:57:03.614Z,3.07
2022-08-12T04:59:32.698Z,3.20
2022-08-12T05:02:14.622Z,3.10
2022-08-12T05:04:43.900Z,3.07
2022-08-12T05:07:11.446Z,2.30
2022-08-12T05:10:00.884Z,2.80
2022-08-12T05:12:25.411Z,2.63
2022-08-12T05:14:52.029Z,2.50
2022-08-12T05:17:18.805Z,2.27
2022-08-12T05:19:46.253Z,2.30
2022-08-12T05:22:13.126Z,2.20
2022-08-12T05:24:39.744Z,2.50
2022-08-12T05:27:06.435Z,2.27
2022-08-12T05:30:06.534Z,2.30
2022-08-12T05:32:25.631Z,2.57
2022-08-12T05:34:53.664Z,2.40
2022-08-12T05:37:23.505Z,2.43
2022-08-12T05:39:50.395Z,2.30
2022-08-12T05:42:18.141Z,2.87
2022-08-12T05:45:00.007Z,2.53
2022-08-12T05:47:42.778Z,2.40
2022-08-12T05:50:15.855Z,2.23
2022-08-12T05:52:42.606Z,2.30
2022-08-12T05:55:10.278Z,2.00
2022-08-12T05:57:38.498Z,2.13
2022-08-12T06:00:05.784Z,2.07
2022-08-12T06:02:32.474Z,2.20
2022-08-12T06:05:00.233Z,2.50
2022-08-12T06:07:42.800Z,2.10
2022-08-12T06:10:13.672Z,1.93
2022-08-12T06:12:40.485Z,2.93
2022-08-12T06:15:07.777Z,2.10
2022-08-12T06:17:35.203Z,2.17
2022-08-12T06:20:29.455Z,2.10
2022-08-12T06:22:48.541Z,1.93
2022-08-12T06:25:22.012Z,1.90
2022-08-12T06:28:06.768Z,1.77
2022-08-12T06:30:38.362Z,1.50
2022-08-12T06:33:24.834Z,1.63
2022-08-12T06:35:57.731Z,1.67
2022-08-12T06:38:25.803Z,1.60
2022-08-12T06:41:15.474Z,1.47
2022-08-12T06:44:06.597Z,1.40
2022-08-12T06:46:30.655Z,1.40
2022-08-12T06:48:58.956Z,1.37
2022-08-12T06:51:27.268Z,1.10
2022-08-12T06:53:54.621Z,1.37
2022-08-12T06:56:30.460Z,1.17
2022-08-12T06:59:06.777Z,1.10
2022-08-12T07:01:33.483Z,0.90
2022-08-12T07:04:14.319Z,1.10
2022-08-12T07:06:46.852Z,1.10
2022-08-12T07:09:55.719Z,1.43
2022-08-12T07:12:01.641Z,0.97
2022-08-12T07:14:28.391Z,1.23
2022-08-12T07:17:01.947Z,1.00
2022-08-12T07:19:40.608Z,1.00
2022-08-12T07:22:14.021Z,0.80
2022-08-12T07:24:40.822Z,1.10
2022-08-12T07:27:07.534Z,1.20
2022-08-12T07:30:00.035Z,0.90
2022-08-12T07:32:24.378Z,0.90
2022-08-12T07:34:52.337Z,0.90
2022-08-12T07:37:18.969Z,0.90
2022-08-12T07:39:51.281Z,1.10
2022-08-12T07:42:26.811Z,0.80
2022-08-12T07:44:53.598Z,0.93
2022-08-12T07:47:20.239Z,0.93
2022-08-12T07:50:04.909Z,0.90
2022-08-12T07:52:34.525Z,1.05
2022-08-12T07:55:01.589Z,1.05
2022-08-12T07:57:28.255Z,0.90
2022-08-12T07:59:55.802Z,1.00
2022-08-12T08:02:26.801Z,0.90
2022-08-12T08:04:56.915Z,0.98
2022-08-12T08:07:25.608Z,0.90
2022-08-12T08:09:58.485Z,1.40
2022-08-12T08:12:47.844Z,1.10
2022-08-12T08:15:15.524Z,1.20
2022-08-12T08:17:54.450Z,1.00
2022-08-12T08:20:23.368Z,1.10
2022-08-12T08:22:50.010Z,1.05
2022-08-12T08:25:34.589Z,0.93
2022-08-12T08:28:11.733Z,1.10
2022-08-12T08:30:42.285Z,1.00
2022-08-12T08:33:23.758Z,1.08
2022-08-12T08:35:55.974Z,1.20
2022-08-12T08:38:32.097Z,1.10
2022-08-12T08:42:18.108Z,0.90
2022-08-12T08:44:07.757Z,1.10
2022-08-12T08:46:37.492Z,1.23
2022-08-12T08:49:05.293Z,1.08
2022-08-12T08:51:32.021Z,1.10
2022-08-12T08:53:58.672Z,1.10
2022-08-12T08:56:25.280Z,1.10
2022-08-12T08:58:51.907Z,0.95
2022-08-12T09:01:21.457Z,1.45
2022-08-12T09:05:08.205Z,1.13
2022-08-12T09:06:37.782Z,1.10
2022-08-12T09:09:23.887Z,0.90
2022-08-12T09:12:12.262Z,0.90
2022-08-12T09:14:47.063Z,1.02
2022-08-12T09:20:05.827Z,0.98
2022-08-12T09:22:35.114Z,1.00
2022-08-12T09:25:06.201Z,1.10
2022-08-12T09:27:57.730Z,1.30
2022-08-12T09:30:41.253Z,0.90
2022-08-12T09:33:18.311Z,1.20
2022-08-12T09:35:46.794Z,1.38
2022-08-12T09:38:32.083Z,1.10
2022-08-12T09:42:09.269Z,1.08
2022-08-12T09:44:05.131Z,1.20
2022-08-12T09:46:32.275Z,1.23
2022-08-12T09:49:01.664Z,1.15
2022-08-12T09:51:38.302Z,1.05
2022-08-12T09:54:32.813Z,1.10
2022-08-12T09:57:03.692Z,1.00
2022-08-12T10:00:16.634Z,0.88
2022-08-12T10:02:42.675Z,1.08
2022-08-12T10:05:17.702Z,1.02
2022-08-12T10:07:46.886Z,0.98
2022-08-12T10:10:23.784Z,1.02
2022-08-12T10:13:12.946Z,1.05
2022-08-12T10:16:03.076Z,1.40
2022-08-12T10:18:32.654Z,0.93
2022-08-12T10:21:05.637Z,0.82
2022-08-12T10:23:40.301Z,1.10
2022-08-12T10:26:37.685Z,1.88
2022-08-12T10:30:41.035Z,0.93
2022-08-12T10:32:20.579Z,1.10
2022-08-12T10:34:53.690Z,1.33
2022-08-12T10:38:34.507Z,1.00
2022-08-12T10:40:15.611Z,0.90
2022-08-12T10:43:05.772Z,0.93
2022-08-12T10:45:32.807Z,0.80
2022-08-12T10:48:21.516Z,1.00
2022-08-12T10:51:02.079Z,0.93
2022-08-12T10:53:45.944Z,1.17
2022-08-12T10:56:17.172Z,2.22
2022-08-12T10:58:45.968Z,1.27
2022-08-12T11:02:05.245Z,1.10
2022-08-12T11:04:22.960Z,1.00
2022-08-12T11:07:09.093Z,1.10
2022-08-12T11:09:59.753Z,1.00
2022-08-12T11:12:56.505Z,0.90
2022-08-12T11:15:20.641Z,0.90
2022-08-12T11:17:52.477Z,0.90
2022-08-12T11:20:20.882Z,1.10
2022-08-12T11:23:25.323Z,0.85
2022-08-12T11:25:59.649Z,0.73
2022-08-12T11:28:34.015Z,1.10
2022-08-12T11:31:02.992Z,1.15
2022-08-12T11:34:04.454Z,0.88
2022-08-12T11:36:16.920Z,0.80
2022-08-12T11:38:43.686Z,0.90
2022-08-12T11:41:31.775Z,0.90
2022-08-12T11:44:35.044Z,0.90
2022-08-12T11:46:51.153Z,1.20
2022-08-12T11:49:30.800Z,0.90
2022-08-12T11:51:59.413Z,1.10
2022-08-12T11:54:26.048Z,1.10
2022-08-12T11:57:00.059Z,0.88
2022-08-12T12:02:18.826Z,1.00
2022-08-12T12:04:46.075Z,1.00
2022-08-12T12:07:22.360Z,1.45
2022-08-12T12:09:53.413Z,0.88
2022-08-12T12:12:25.039Z,1.00
2022-08-12T12:14:54.168Z,1.08
2022-08-12T12:17:21.827Z,1.10
2022-08-12T12:19:48.843Z,0.90
2022-08-12T12:22:15.751Z,1.45
2022-08-12T12:24:51.006Z,0.80
2022-08-12T12:27:20.560Z,0.70
2022-08-12T12:30:18.745Z,0.77
2022-08-12T12:32:54.251Z,0.85
2022-08-12T12:36:19.661Z,0.80
2022-08-12T12:38:12.326Z,0.73
2022-08-12T12:40:44.180Z,0.90
2022-08-12T12:43:11.942Z,0.80
2022-08-12T12:45:39.640Z,0.90
2022-08-12T12:48:13.143Z,0.90
2022-08-12T12:51:10.877Z,0.75
2022-08-12T12:54:06.519Z,0.95
2022-08-12T12:56:34.190Z,0.95
2022-08-12T12:59:03.434Z,1.25
2022-08-12T13:01:32.890Z,0.68
2022-08-12T13:04:02.975Z,1.00
2022-08-12T13:06:31.474Z,3.65
2022-08-12T13:09:03.130Z,0.90
2022-08-12T13:11:41.453Z,1.02
2022-08-12T13:14:12.930Z,0.80
2022-08-12T13:16:55.232Z,0.80
2022-08-12T13:19:36.676Z,0.70
2022-08-12T13:22:19.311Z,0.68
2022-08-12T13:24:51.852Z,0.70
2022-08-12T13:27:21.472Z,0.68
2022-08-12T13:29:48.880Z,0.90
2022-08-12T13:32:28.210Z,0.88
2022-08-12T13:35:04.642Z,0.63
2022-08-12T13:37:54.806Z,0.80
2022-08-12T13:40:26.481Z,0.60
2022-08-12T13:42:57.397Z,0.65
2022-08-12T13:45:25.446Z,0.70
2022-08-12T13:48:00.268Z,0.63
2022-08-12T13:50:38.133Z,0.50
2022-08-12T13:53:24.928Z,0.60
2022-08-12T13:56:01.182Z,0.80
2022-08-12T13:58:30.080Z,0.88
2022-08-12T14:00:57.984Z,0.75
2022-08-12T14:03:28.569Z,0.80
2022-08-12T14:06:15.391Z,0.80
2022-08-12T14:08:42.773Z,0.55
2022-08-12T14:11:09.618Z,0.65
2022-08-12T14:14:03.828Z,0.70
2022-08-12T14:16:37.809Z,0.63
2022-08-12T14:19:22.564Z,0.57
2022-08-12T14:21:59.471Z,0.77
2022-08-12T14:24:27.336Z,0.70
2022-08-12T14:26:58.841Z,0.60
2022-08-12T14:29:56.268Z,0.70
2022-08-12T14:32:17.417Z,0.80
2022-08-12T14:34:46.295Z,1.30
2022-08-12T14:37:54.828Z,0.60
2022-08-12T14:40:00.472Z,0.70
2022-08-12T14:42:28.178Z,0.55
2022-08-12T14:45:01.623Z,0.60
2022-08-12T14:47:35.063Z,0.55
2022-08-12T14:50:37.714Z,0.73
2022-08-12T14:58:28.318Z,0.60
2022-08-12T15:01:16.996Z,0.65
2022-08-12T15:03:57.336Z,0.68
2022-08-12T15:06:39.746Z,0.60
2022-08-12T15:09:13.924Z,0.47
2022-08-12T15:11:54.398Z,0.60
2022-08-12T15:14:26.526Z,0.65
2022-08-12T15:16:56.980Z,0.70
2022-08-12T15:20:28.648Z,0.80
2022-08-12T15:22:36.080Z,0.80
2022-08-12T15:25:07.397Z,1.77
2022-08-12T15:28:05.255Z,0.93
2022-08-12T15:30:32.279Z,0.57
2022-08-12T15:33:00.412Z,0.60
2022-08-12T15:35:50.234Z,1.55
2022-08-12T15:38:20.612Z,0.50
2022-08-12T15:40:54.685Z,1.00
2022-08-12T15:43:35.489Z,0.70
2022-08-12T15:46:15.094Z,0.75
2022-08-12T15:48:47.449Z,0.68
2022-08-12T15:51:58.724Z,0.60
2022-08-12T15:54:33.168Z,0.73
2022-08-12T15:57:05.332Z,0.50
2022-08-12T15:59:51.143Z,1.00
2022-08-12T16:02:19.202Z,0.70
2022-08-12T16:04:50.200Z,0.80
2022-08-12T16:07:26.017Z,0.45
2022-08-12T16:10:05.437Z,0.73
2022-08-12T16:12:39.423Z,0.63
2022-08-12T16:15:07.075Z,0.60
2022-08-12T16:18:18.502Z,0.60
2022-08-12T16:20:27.827Z,0.70
2022-08-12T16:23:26.259Z,0.47
2022-08-12T16:26:05.665Z,0.60
2022-08-12T16:28:40.710Z,0.73
2022-08-12T16:31:09.790Z,0.70
2022-08-12T16:33:56.477Z,0.60
2022-08-12T16:36:25.412Z,0.88
2022-08-12T16:38:52.192Z,0.63
2022-08-12T16:41:18.863Z,0.43
2022-08-12T16:43:46.609Z,0.63
2022-08-12T16:46:32.419Z,0.60
2022-08-12T16:49:04.270Z,0.50
2022-08-12T16:51:40.263Z,0.70
2022-08-12T16:54:14.087Z,0.50
2022-08-12T16:56:54.801Z,2.72
2022-08-12T16:59:25.904Z,0.60
2022-08-12T17:01:57.574Z,0.60
2022-08-12T17:04:25.250Z,0.65
2022-08-12T17:06:52.529Z,0.60
2022-08-12T17:09:19.243Z,0.60
2022-08-12T17:11:49.689Z,0.60
2022-08-12T17:14:16.893Z,0.50
2022-08-12T17:16:45.689Z,0.65
2022-08-12T17:19:13.882Z,0.60
2022-08-12T17:22:01.169Z,0.47
2022-08-12T17:24:30.801Z,0.60
2022-08-12T17:26:58.673Z,0.63
2022-08-12T17:30:00.348Z,0.70
2022-08-12T17:32:14.146Z,0.50
2022-08-12T17:34:59.893Z,1.10
2022-08-12T17:37:27.009Z,0.50
2022-08-12T17:40:15.359Z,0.50
2022-08-12T17:42:43.498Z,0.60
2022-08-12T17:45:17.030Z,0.47
2022-08-12T17:47:44.373Z,0.75
2022-08-12T17:50:12.816Z,0.50
2022-08-12T17:52:40.212Z,0.60
2022-08-12T17:55:40.615Z,0.70
2022-08-12T17:57:55.370Z,0.80
2022-08-12T18:00:22.008Z,0.60
2022-08-12T18:02:49.304Z,0.80
2022-08-12T18:05:18.056Z,0.73
2022-08-12T18:07:49.717Z,0.77
2022-08-12T18:10:38.511Z,0.80
2022-08-12T18:13:10.670Z,0.70
2022-08-12T18:16:04.191Z,0.60
2022-08-12T18:18:24.297Z,0.60
2022-08-12T18:20:57.570Z,0.60
2022-08-12T18:23:27.367Z,0.60
2022-08-12T18:26:17.502Z,0.50
2022-08-12T18:28:44.533Z,0.43
2022-08-12T18:31:17.371Z,0.70
2022-08-12T18:33:46.202Z,0.57
2022-08-12T18:36:13.548Z,0.60
2022-08-12T18:38:40.401Z,0.50
2022-08-12T18:41:31.997Z,0.70
2022-08-12T18:44:09.729Z,0.68
2022-08-12T18:46:55.406Z,0.70
2022-08-12T18:49:30.737Z,0.60
2022-08-12T18:52:04.215Z,2.17
2022-08-12T18:54:37.427Z,0.82
2022-08-12T18:57:19.591Z,0.70
2022-08-12T19:00:01.146Z,1.02
2022-08-12T19:02:32.762Z,0.70
2022-08-12T19:05:03.205Z,0.93
2022-08-12T19:07:50.163Z,0.75
2022-08-12T19:10:23.116Z,0.80
2022-08-12T19:13:08.954Z,0.68
2022-08-12T19:15:43.037Z,0.77
2022-08-12T19:18:10.845Z,0.68
2022-08-12T19:20:39.271Z,0.68
2022-08-12T19:23:08.199Z,0.70
2022-08-12T19:26:00.329Z,1.25
2022-08-12T19:28:34.437Z,0.70
2022-08-12T19:31:56.859Z,1.95
2022-08-12T19:37:14.832Z,0.85
2022-08-12T19:40:10.189Z,0.80
2022-08-12T19:42:28.806Z,0.77
2022-08-12T19:45:02.264Z,0.70
2022-08-12T19:47:31.444Z,0.70
2022-08-12T19:50:06.737Z,1.00
2022-08-12T19:52:33.777Z,0.80
2022-08-12T19:55:01.396Z,0.85
2022-08-12T19:57:29.336Z,0.90
2022-08-12T20:00:04.134Z,0.80
2022-08-12T20:02:34.604Z,1.05
2022-08-12T20:06:04.702Z,1.58
2022-08-12T20:07:57.006Z,0.90
2022-08-12T20:10:35.237Z,0.90
2022-08-12T20:13:18.243Z,1.20
2022-08-12T20:15:59.488Z,0.90
2022-08-12T20:18:52.978Z,0.95
2022-08-12T20:21:15.999Z,0.80
2022-08-12T20:24:00.564Z,1.15
2022-08-12T20:26:28.082Z,1.00
2022-08-12T20:28:55.406Z,0.95
2022-08-12T20:31:22.073Z,0.90
2022-08-12T20:33:50.629Z,1.95
2022-08-12T20:36:42.924Z,1.05
2022-08-12T20:39:34.324Z,1.00
2022-08-12T20:42:07.113Z,0.90
2022-08-12T20:44:36.333Z,1.27
2022-08-12T20:47:18.054Z,1.02
2022-08-12T20:49:47.138Z,0.90
2022-08-12T20:52:25.241Z,1.10
2022-08-12T20:54:51.896Z,0.90
2022-08-12T20:57:19.424Z,1.08
2022-08-12T20:59:49.395Z,1.10
2022-08-12T21:02:18.796Z,1.02
2022-08-12T21:05:16.073Z,0.93
2022-08-12T21:07:51.613Z,1.20
2022-08-12T21:10:20.538Z,1.20
2022-08-12T21:12:47.911Z,1.02
2022-08-12T21:15:16.660Z,0.90
2022-08-12T21:18:09.406Z,1.77
2022-08-12T21:20:32.527Z,0.80
2022-08-12T21:22:59.312Z,1.00
2022-08-12T21:25:44.687Z,1.00
2022-08-12T21:28:13.878Z,1.10
2022-08-12T21:31:11.360Z,0.93
2022-08-12T21:33:31.785Z,1.00
2022-08-12T21:36:00.881Z,0.80
2022-08-12T21:38:34.337Z,0.90
2022-08-12T21:41:01.205Z,1.40
2022-08-12T21:43:44.514Z,1.08
2022-08-12T21:46:33.715Z,0.90
2022-08-12T21:49:03.980Z,1.15
2022-08-12T21:51:49.338Z,1.10
2022-08-12T21:54:22.008Z,0.90
2022-08-12T21:56:49.970Z,1.20
2022-08-12T21:59:17.351Z,0.80
2022-08-12T22:01:48.732Z,0.90
2022-08-12T22:04:35.137Z,0.97
2022-08-12T22:07:01.946Z,0.90
2022-08-12T22:09:29.462Z,0.85
2022-08-12T22:12:28.135Z,0.80
2022-08-12T22:14:54.780Z,0.93
2022-08-12T22:17:21.424Z,1.00
2022-08-12T22:19:50.460Z,0.90
2022-08-12T22:22:17.228Z,0.95
2022-08-12T22:24:47.889Z,0.70
2022-08-12T22:27:32.003Z,1.10
2022-08-12T22:30:19.848Z,1.00
2022-08-12T22:32:51.509Z,0.95
2022-08-12T22:35:56.239Z,2.50
2022-08-12T22:38:26.374Z,1.10
2022-08-12T22:41:01.640Z,1.20
2022-08-12T22:44:00.710Z,1.60
2022-08-12T22:46:37.190Z,1.30
2022-08-12T22:49:06.659Z,1.60
2022-08-12T22:51:57.418Z,1.40
2022-08-12T22:54:35.155Z,1.47
2022-08-12T22:57:03.218Z,1.90
2022-08-12T22:59:51.508Z,2.30
2022-08-12T23:02:17.672Z,2.40
2022-08-12T23:04:56.364Z,2.27
2022-08-12T23:07:24.505Z,2.87
2022-08-12T23:09:51.244Z,3.23
2022-08-12T23:12:46.591Z,4.27
2022-08-12T23:15:14.020Z,3.67
2022-08-12T23:17:41.827Z,3.50
2022-08-12T23:20:11.002Z,3.23
2022-08-12T23:22:38.266Z,2.60
2022-08-12T23:25:06.251Z,2.53
2022-08-12T23:28:03.733Z,2.13
2022-08-12T23:30:31.801Z,2.27
2022-08-12T23:33:02.319Z,2.13
2022-08-12T23:35:46.001Z,1.93
2022-08-12T23:38:31.096Z,2.20
2022-08-12T23:41:02.445Z,2.20
2022-08-12T23:43:39.574Z,2.60
2022-08-12T23:46:11.478Z,2.80
2022-08-12T23:48:38.366Z,2.70
2022-08-12T23:51:22.241Z,2.43
2022-08-12T23:53:55.446Z,2.60
2022-08-12T23:56:23.521Z,2.10
2022-08-12T23:58:52.506Z,2.20
